createdAt,value
2018-12-15T00:01:50.659Z,0.30
2018-12-15T00:04:20.312Z,0.40
2018-12-15T00:06:50.614Z,0.40
2018-12-15T00:09:20.210Z,0.40
2018-12-15T00:11:50.190Z,0.30
2018-12-15T00:14:19.799Z,0.20
2018-12-15T00:16:49.688Z,0.20
2018-12-15T00:19:19.415Z,0.20
2018-12-15T00:21:49.442Z,0.20
2018-12-15T00:24:19.102Z,0.30
2018-12-15T00:26:48.715Z,0.20
2018-12-15T00:29:18.356Z,0.20
2018-12-15T00:31:47.963Z,0.30
2018-12-15T00:34:17.639Z,0.30
2018-12-15T00:36:47.647Z,0.20
2018-12-15T00:39:17.378Z,0.30
2018-12-15T00:41:47.064Z,0.30
2018-12-15T00:44:16.818Z,0.20
2018-12-15T00:46:46.458Z,0.20
2018-12-15T00:49:16.078Z,0.20
2018-12-15T00:51:46.589Z,0.10
2018-12-15T00:54:16.496Z,0.10
2018-12-15T00:56:46.113Z,0.10
2018-12-15T00:59:15.865Z,0.10
2018-12-15T01:01:45.912Z,0.10
2018-12-15T01:04:15.596Z,0.10
2018-12-15T01:06:45.849Z,0.10
2018-12-15T01:09:15.457Z,0.10
2018-12-15T01:11:45.201Z,0.10
2018-12-15T01:14:14.747Z,0.10
2018-12-15T01:16:44.423Z,0.10
2018-12-15T01:19:14.029Z,0.00
2018-12-15T01:21:44.806Z,0.00
2018-12-15T01:24:14.441Z,0.00
2018-12-15T01:26:44.043Z,0.00
2018-12-15T01:29:13.629Z,0.00
2018-12-15T01:31:43.192Z,0.10
2018-12-15T01:34:12.870Z,0.00
2018-12-15T01:36:43.571Z,0.00
2018-12-15T01:39:13.314Z,0.00
2018-12-15T01:41:42.923Z,0.00
2018-12-15T01:44:12.689Z,0.10
2018-12-15T01:46:42.311Z,0.00
2018-12-15T01:49:12.015Z,0.00
2018-12-15T01:51:43.400Z,0.00
2018-12-15T01:54:13.215Z,0.10
2018-12-15T01:56:42.920Z,-0.10
2018-12-15T01:59:12.525Z,0.00
2018-12-15T02:01:42.201Z,0.00
2018-12-15T02:04:11.842Z,0.00
2018-12-15T02:06:43.021Z,0.00
2018-12-15T02:09:12.820Z,0.00
2018-12-15T02:11:42.907Z,0.00
2018-12-15T02:14:12.684Z,-0.10
2018-12-15T02:16:42.479Z,-0.10
2018-12-15T02:19:12.162Z,-0.10
2018-12-15T02:21:42.508Z,-0.20
2018-12-15T02:24:12.241Z,-0.10
2018-12-15T02:26:41.803Z,-0.10
2018-12-15T02:29:13.458Z,0.00
2018-12-15T02:31:43.203Z,-0.10
2018-12-15T02:34:12.928Z,-0.10
2018-12-15T02:36:43.582Z,0.00
2018-12-15T02:39:13.268Z,0.00
2018-12-15T02:41:47.202Z,-0.10
2018-12-15T02:44:14.631Z,-0.10
2018-12-15T02:46:44.317Z,-0.10
2018-12-15T02:49:13.949Z,-0.10
2018-12-15T02:51:44.339Z,-0.10
2018-12-15T02:54:13.985Z,-0.10
2018-12-15T02:56:43.655Z,-0.20
2018-12-15T02:59:13.275Z,-0.10
2018-12-15T03:01:42.870Z,-0.10
2018-12-15T03:04:12.670Z,-0.10
2018-12-15T03:06:42.832Z,-0.20
2018-12-15T03:09:13.535Z,-0.20
2018-12-15T03:11:43.523Z,-0.10
2018-12-15T03:14:13.179Z,-0.10
2018-12-15T03:16:58.307Z,-0.10
2018-12-15T03:19:28.019Z,-0.10
2018-12-15T03:21:57.718Z,-0.10
2018-12-15T03:24:34.065Z,-0.10
2018-12-15T03:27:03.790Z,-0.20
2018-12-15T03:29:33.396Z,-0.30
2018-12-15T03:32:03.076Z,-0.20
2018-12-15T03:34:32.683Z,-0.20
2018-12-15T03:37:02.327Z,-0.20
2018-12-15T03:39:31.952Z,-0.10
2018-12-15T03:42:01.629Z,-0.10
2018-12-15T03:44:31.272Z,0.00
2018-12-15T03:47:00.944Z,-0.10
2018-12-15T03:49:30.526Z,-0.10
2018-12-15T03:52:00.115Z,-0.10
2018-12-15T03:54:29.745Z,-0.20
2018-12-15T03:56:59.372Z,-0.20
2018-12-15T03:59:29.293Z,-0.20
2018-12-15T04:01:59.052Z,-0.20
2018-12-15T04:04:29.918Z,-0.20
2018-12-15T04:06:59.700Z,-0.20
2018-12-15T04:09:29.460Z,-0.10
2018-12-15T04:11:59.070Z,-0.20
2018-12-15T04:14:28.711Z,-0.10
2018-12-15T04:16:58.313Z,0.00
2018-12-15T04:19:27.973Z,0.00
2018-12-15T04:22:13.135Z,-0.10
2018-12-15T04:24:43.630Z,-0.10
2018-12-15T04:27:13.761Z,-0.20
2018-12-15T04:29:43.391Z,-0.20
2018-12-15T04:32:13.272Z,-0.20
2018-12-15T04:34:42.987Z,-0.20
2018-12-15T04:37:13.543Z,-0.30
2018-12-15T04:39:43.810Z,-0.20
2018-12-15T04:42:14.503Z,-0.30
2018-12-15T04:44:44.232Z,-0.30
2018-12-15T04:47:14.853Z,-0.30
2018-12-15T04:49:44.606Z,-0.20
2018-12-15T04:52:14.504Z,-0.20
2018-12-15T04:54:45.314Z,-0.20
2018-12-15T04:57:15.118Z,-0.20
2018-12-15T04:59:44.709Z,-0.30
2018-12-15T05:02:14.963Z,-0.30
2018-12-15T05:04:44.603Z,-0.30
2018-12-15T05:07:15.083Z,-0.30
2018-12-15T05:09:45.460Z,-0.30
2018-12-15T05:12:15.287Z,-0.20
2018-12-15T05:14:44.917Z,-0.20
2018-12-15T05:17:15.237Z,-0.30
2018-12-15T05:19:44.881Z,-0.30
2018-12-15T05:22:15.009Z,-0.30
2018-12-15T05:24:45.782Z,-0.20
2018-12-15T05:27:16.416Z,-0.20
2018-12-15T05:29:46.088Z,-0.20
2018-12-15T05:32:15.984Z,-0.20
2018-12-15T05:34:45.735Z,-0.20
2018-12-15T05:37:15.799Z,-0.20
2018-12-15T05:39:46.232Z,-0.20
2018-12-15T05:42:17.166Z,-0.20
2018-12-15T05:44:46.865Z,-0.20
2018-12-15T05:47:16.972Z,-0.20
2018-12-15T05:49:46.605Z,-0.20
2018-12-15T05:52:17.098Z,-0.20
2018-12-15T05:54:47.170Z,-0.20
2018-12-15T05:57:17.412Z,-0.20
2018-12-15T05:59:47.288Z,-0.20
2018-12-15T06:02:18.752Z,-0.20
2018-12-15T06:04:48.817Z,-0.10
2018-12-15T06:07:18.485Z,-0.10
2018-12-15T06:09:48.674Z,0.00
2018-12-15T06:12:18.397Z,0.00
2018-12-15T06:15:12.806Z,-0.10
2018-12-15T06:17:42.424Z,-0.10
2018-12-15T06:20:12.607Z,0.00
2018-12-15T06:22:42.575Z,-0.10
2018-12-15T06:25:13.133Z,-0.10
2018-12-15T06:27:43.540Z,-0.10
2018-12-15T06:30:14.927Z,-0.10
2018-12-15T06:32:45.173Z,-0.20
2018-12-15T06:35:15.788Z,-0.10
2018-12-15T06:37:45.700Z,-0.20
2018-12-15T06:40:15.422Z,-0.20
2018-12-15T06:42:46.308Z,-0.20
2018-12-15T06:45:16.168Z,-0.20
2018-12-15T06:47:46.174Z,-0.20
2018-12-15T06:50:15.979Z,-0.10
2018-12-15T06:52:46.061Z,0.00
2018-12-15T06:55:17.994Z,-0.10
2018-12-15T06:57:48.832Z,-0.10
2018-12-15T07:00:18.575Z,-0.10
2018-12-15T07:02:48.315Z,-0.10
2018-12-15T07:05:17.893Z,-0.20
2018-12-15T07:07:47.438Z,-0.20
2018-12-15T07:10:17.194Z,-0.20
2018-12-15T07:12:47.705Z,-0.10
2018-12-15T07:15:17.422Z,-0.10
2018-12-15T07:17:47.042Z,-0.10
2018-12-15T07:20:16.694Z,-0.10
2018-12-15T07:22:46.298Z,0.00
2018-12-15T07:25:15.952Z,0.00
2018-12-15T07:27:46.221Z,0.00
2018-12-15T07:30:16.812Z,-0.10
2018-12-15T07:32:46.422Z,-0.10
2018-12-15T07:35:16.029Z,-0.10
2018-12-15T07:37:45.693Z,-0.10
2018-12-15T07:40:15.295Z,-0.10
2018-12-15T07:42:45.594Z,-0.10
2018-12-15T07:45:15.122Z,-0.10
2018-12-15T07:47:47.505Z,-0.10
2018-12-15T07:50:17.077Z,0.00
2018-12-15T07:52:46.638Z,0.00
2018-12-15T07:55:16.224Z,0.10
2018-12-15T07:57:46.636Z,0.10
2018-12-15T08:00:16.272Z,0.20
2018-12-15T08:02:45.860Z,0.20
2018-12-15T08:05:15.460Z,0.20
2018-12-15T08:07:45.599Z,0.20
2018-12-15T08:13:08.956Z,0.30
2018-12-15T08:15:39.053Z,0.20
2018-12-15T08:18:08.730Z,0.30
2018-12-15T08:20:38.380Z,0.20
2018-12-15T08:23:08.317Z,0.20
2018-12-15T08:25:37.943Z,0.20
2018-12-15T08:28:11.252Z,0.30
2018-12-15T08:30:43.342Z,0.30
2018-12-15T08:33:12.916Z,0.30
2018-12-15T08:35:42.435Z,0.30
2018-12-15T08:38:12.179Z,0.30
2018-12-15T08:40:43.261Z,0.40
2018-12-15T08:43:13.194Z,0.40
2018-12-15T08:45:43.380Z,0.40
2018-12-15T08:48:13.032Z,0.40
2018-12-15T08:50:42.771Z,0.40
2018-12-15T08:53:12.437Z,0.40
2018-12-15T08:55:42.122Z,0.50
2018-12-15T08:58:11.743Z,0.40
2018-12-15T09:00:42.355Z,0.50
2018-12-15T09:03:11.971Z,0.60
2018-12-15T09:05:41.628Z,0.50
2018-12-15T09:08:11.265Z,0.40
2018-12-15T09:10:40.847Z,0.40
2018-12-15T09:13:10.396Z,0.50
2018-12-15T09:15:42.567Z,0.60
2018-12-15T09:18:12.395Z,0.80
2018-12-15T09:20:43.285Z,0.90
2018-12-15T09:23:13.038Z,1.00
2018-12-15T09:25:42.872Z,1.00
2018-12-15T09:28:12.587Z,1.00
2018-12-15T09:30:43.220Z,1.00
2018-12-15T09:33:12.810Z,0.90
2018-12-15T09:35:42.530Z,1.00
2018-12-15T09:38:12.205Z,1.00
2018-12-15T09:40:41.817Z,1.10
2018-12-15T09:43:11.428Z,1.20
2018-12-15T09:45:42.963Z,1.10
2018-12-15T09:48:12.593Z,1.20
2018-12-15T09:50:42.327Z,1.30
2018-12-15T09:53:11.965Z,1.30
2018-12-15T09:55:42.754Z,1.20
2018-12-15T09:58:15.345Z,1.30
2018-12-15T10:00:46.635Z,1.30
2018-12-15T10:03:16.466Z,1.30
2018-12-15T10:05:46.193Z,1.30
2018-12-15T10:08:15.938Z,1.30
2018-12-15T10:10:45.521Z,1.20
2018-12-15T10:13:15.448Z,1.10
2018-12-15T10:15:45.865Z,1.20
2018-12-15T10:18:18.681Z,1.20
2018-12-15T10:20:48.963Z,1.20
2018-12-15T10:23:19.741Z,1.20
2018-12-15T10:25:49.319Z,1.30
2018-12-15T10:28:18.867Z,1.40
2018-12-15T10:30:54.579Z,1.40
2018-12-15T10:33:24.923Z,1.30
2018-12-15T10:35:55.800Z,1.30
2018-12-15T10:38:34.402Z,1.40
2018-12-15T10:41:15.382Z,1.40
2018-12-15T10:43:53.379Z,1.60
2018-12-15T10:46:30.570Z,1.60
2018-12-15T10:49:07.292Z,1.50
2018-12-15T10:51:44.456Z,1.60
2018-12-15T10:54:25.878Z,1.60
2018-12-15T10:57:05.403Z,1.70
2018-12-15T10:59:44.304Z,1.70
2018-12-15T11:02:23.982Z,1.70
2018-12-15T11:05:05.909Z,1.80
2018-12-15T11:07:42.941Z,1.90
2018-12-15T11:10:24.224Z,1.90
2018-12-15T11:13:02.346Z,1.80
2018-12-15T11:15:37.854Z,1.50
2018-12-15T11:18:18.074Z,1.50
2018-12-15T11:20:58.103Z,1.50
2018-12-15T11:23:34.948Z,1.60
2018-12-15T11:26:22.786Z,1.50
2018-12-15T11:29:00.596Z,1.50
2018-12-15T11:31:43.431Z,1.50
2018-12-15T11:34:25.257Z,1.50
2018-12-15T11:37:05.202Z,1.60
2018-12-15T11:39:45.257Z,1.50
2018-12-15T11:42:24.034Z,1.50
2018-12-15T11:45:06.354Z,1.50
2018-12-15T11:47:48.669Z,1.60
2018-12-15T11:50:29.826Z,1.70
2018-12-15T11:53:10.443Z,1.70
2018-12-15T11:55:49.220Z,1.60
2018-12-15T11:58:29.078Z,1.40
2018-12-15T12:01:08.998Z,1.40
2018-12-15T12:03:51.838Z,1.30
2018-12-15T12:06:32.908Z,1.40
2018-12-15T12:09:15.901Z,1.30
2018-12-15T12:11:58.035Z,1.30
2018-12-15T12:14:38.157Z,1.40
2018-12-15T12:17:20.853Z,1.30
2018-12-15T12:19:56.919Z,1.20
2018-12-15T12:22:34.712Z,1.20
2018-12-15T12:25:05.136Z,1.30
2018-12-15T12:27:34.750Z,1.30
2018-12-15T12:30:04.742Z,1.30
2018-12-15T12:32:34.707Z,1.20
2018-12-15T12:35:04.717Z,1.20
2018-12-15T12:37:34.368Z,1.10
2018-12-15T12:40:05.385Z,1.20
2018-12-15T12:42:35.898Z,1.20
2018-12-15T12:45:06.404Z,1.20
2018-12-15T12:47:36.020Z,1.20
2018-12-15T12:50:06.910Z,1.30
2018-12-15T12:52:36.574Z,1.20
2018-12-15T12:55:06.542Z,1.30
2018-12-15T12:57:36.175Z,1.20
2018-12-15T13:00:06.592Z,1.20
2018-12-15T13:02:36.274Z,1.20
2018-12-15T13:05:06.970Z,1.20
2018-12-15T13:07:36.569Z,1.20
2018-12-15T13:10:06.931Z,1.10
2018-12-15T13:12:36.503Z,1.00
2018-12-15T13:15:06.897Z,1.10
2018-12-15T13:17:36.493Z,1.20
2018-12-15T13:20:06.878Z,1.20
2018-12-15T13:22:36.891Z,1.20
2018-12-15T13:25:07.882Z,1.30
2018-12-15T13:27:37.675Z,1.30
2018-12-15T13:30:08.502Z,1.20
2018-12-15T13:32:38.236Z,1.20
2018-12-15T13:35:08.034Z,1.30
2018-12-15T13:37:38.029Z,1.20
2018-12-15T13:40:09.317Z,1.20
2018-12-15T13:42:39.625Z,1.20
2018-12-15T13:45:10.167Z,1.10
2018-12-15T13:47:40.367Z,1.10
2018-12-15T13:50:10.913Z,1.00
2018-12-15T13:52:41.341Z,1.10
2018-12-15T13:55:11.272Z,1.10
2018-12-15T13:57:41.940Z,1.10
2018-12-15T14:00:11.986Z,1.10
2018-12-15T14:02:42.874Z,1.10
2018-12-15T14:05:12.783Z,1.10
2018-12-15T14:07:42.773Z,1.10
2018-12-15T14:10:12.644Z,1.20
2018-12-15T14:12:42.855Z,1.20
2018-12-15T14:15:12.720Z,1.20
2018-12-15T14:17:42.424Z,1.10
2018-12-15T14:20:16.775Z,1.00
2018-12-15T14:22:44.108Z,1.00
2018-12-15T14:25:13.908Z,1.00
2018-12-15T14:27:44.032Z,1.00
2018-12-15T14:30:13.659Z,1.00
2018-12-15T14:32:43.323Z,0.90
2018-12-15T14:35:12.977Z,1.00
2018-12-15T14:37:42.632Z,1.00
2018-12-15T14:40:13.142Z,1.00
2018-12-15T14:42:43.713Z,1.10
2018-12-15T14:45:16.430Z,1.00
2018-12-15T14:47:46.354Z,1.00
2018-12-15T14:50:15.995Z,1.00
2018-12-15T14:52:45.822Z,1.00
2018-12-15T14:55:15.832Z,1.00
2018-12-15T14:57:45.406Z,1.00
2018-12-15T15:00:15.050Z,0.90
2018-12-15T15:02:44.675Z,0.90
2018-12-15T15:05:14.296Z,1.00
2018-12-15T15:07:44.805Z,0.90
2018-12-15T15:10:14.649Z,0.80
2018-12-15T15:12:44.505Z,0.80
2018-12-15T15:15:14.125Z,0.80
2018-12-15T15:17:43.675Z,0.80
2018-12-15T15:20:13.783Z,0.80
2018-12-15T15:22:55.213Z,0.90
2018-12-15T15:25:25.317Z,0.90
2018-12-15T15:27:54.900Z,0.80
2018-12-15T15:30:24.522Z,0.90
2018-12-15T15:32:54.166Z,0.90
2018-12-15T15:35:23.819Z,0.80
2018-12-15T15:37:53.414Z,0.80
2018-12-15T15:40:23.225Z,0.80
2018-12-15T15:42:52.826Z,0.80
2018-12-15T15:45:23.745Z,0.80
2018-12-15T15:47:53.390Z,0.80
2018-12-15T15:50:23.136Z,0.70
2018-12-15T15:52:54.629Z,0.80
2018-12-15T15:55:24.711Z,0.80
2018-12-15T15:57:54.451Z,0.80
2018-12-15T16:00:24.114Z,0.80
2018-12-15T16:02:54.265Z,0.80
2018-12-15T16:05:24.003Z,0.80
2018-12-15T16:07:53.754Z,0.80
2018-12-15T16:10:23.935Z,0.90
2018-12-15T16:12:53.529Z,0.90
2018-12-15T16:15:23.235Z,0.90
2018-12-15T16:17:52.941Z,0.90
2018-12-15T16:20:22.899Z,0.90
2018-12-15T16:22:52.565Z,0.90
2018-12-15T16:25:22.954Z,0.80
2018-12-15T16:27:52.835Z,0.90
2018-12-15T16:30:22.643Z,0.90
2018-12-15T16:32:52.315Z,0.90
2018-12-15T16:35:22.284Z,0.80
2018-12-15T16:37:51.981Z,0.90
2018-12-15T16:40:22.362Z,0.90
2018-12-15T16:42:52.328Z,0.90
2018-12-15T16:45:22.158Z,0.80
2018-12-15T16:47:51.946Z,0.90
2018-12-15T16:50:21.652Z,0.80
2018-12-15T16:52:51.400Z,0.80
2018-12-15T16:55:21.958Z,0.70
2018-12-15T16:57:51.642Z,0.70
2018-12-15T17:00:21.485Z,0.70
2018-12-15T17:02:51.115Z,0.70
2018-12-15T17:05:20.781Z,0.70
2018-12-15T17:07:50.485Z,0.70
2018-12-15T17:10:20.778Z,0.70
2018-12-15T17:12:50.374Z,0.60
2018-12-15T17:15:19.996Z,0.70
2018-12-15T17:17:49.662Z,0.80
2018-12-15T17:20:19.266Z,0.80
2018-12-15T17:22:48.892Z,0.80
2018-12-15T17:25:21.705Z,0.80
2018-12-15T17:27:51.424Z,0.80
2018-12-15T17:30:21.034Z,0.80
2018-12-15T17:32:50.731Z,0.80
2018-12-15T17:35:20.619Z,0.70
2018-12-15T17:37:50.368Z,0.70
2018-12-15T17:40:20.522Z,0.70
2018-12-15T17:42:50.201Z,0.70
2018-12-15T17:45:19.977Z,0.60
2018-12-15T17:47:49.835Z,0.70
2018-12-15T17:50:19.529Z,0.60
2018-12-15T17:52:49.137Z,0.60
2018-12-15T17:55:19.148Z,0.60
2018-12-15T17:57:48.767Z,0.60
2018-12-15T18:00:18.635Z,0.50
2018-12-15T18:02:48.312Z,0.50
2018-12-15T18:05:18.025Z,0.50
2018-12-15T18:07:47.929Z,0.50
2018-12-15T18:10:18.668Z,0.50
2018-12-15T18:12:48.518Z,0.50
2018-12-15T18:15:18.515Z,0.50
2018-12-15T18:17:48.283Z,0.50
2018-12-15T18:20:17.905Z,0.60
2018-12-15T18:22:47.602Z,0.50
2018-12-15T18:25:18.053Z,0.50
2018-12-15T18:27:48.465Z,0.50
2018-12-15T18:32:58.885Z,0.50
2018-12-15T18:35:28.663Z,0.50
2018-12-15T18:37:58.302Z,0.60
2018-12-15T18:40:28.084Z,0.60
2018-12-15T18:42:57.810Z,0.50
2018-12-15T18:45:27.502Z,0.50
2018-12-15T18:47:57.194Z,0.50
2018-12-15T18:50:26.922Z,0.50
2018-12-15T18:52:56.680Z,0.50
2018-12-15T18:55:27.316Z,0.50
2018-12-15T18:57:56.952Z,0.50
2018-12-15T19:00:26.637Z,0.50
2018-12-15T19:02:57.380Z,0.50
2018-12-15T19:05:27.102Z,0.50
2018-12-15T19:07:57.063Z,0.50
2018-12-15T19:10:26.953Z,0.50
2018-12-15T19:12:56.936Z,0.60
2018-12-15T19:15:26.963Z,0.60
2018-12-15T19:17:57.389Z,0.60
2018-12-15T19:20:27.715Z,0.60
2018-12-15T19:23:02.388Z,0.70
2018-12-15T19:25:32.526Z,0.60
2018-12-15T19:28:02.369Z,0.60
2018-12-15T19:33:24.608Z,0.50
2018-12-15T19:35:54.473Z,0.50
2018-12-15T19:41:10.581Z,0.60
2018-12-15T19:43:41.108Z,0.50
2018-12-15T19:46:12.799Z,0.50
2018-12-15T19:48:43.628Z,0.50
2018-12-15T19:51:15.230Z,0.50
2018-12-15T19:53:45.278Z,0.50
2018-12-15T19:59:15.452Z,0.60
2018-12-15T20:01:50.773Z,0.50
2018-12-15T20:04:21.751Z,0.50
2018-12-15T20:06:52.175Z,0.50
2018-12-15T20:09:22.458Z,0.50
2018-12-15T20:11:52.534Z,0.60
2018-12-15T20:14:22.533Z,0.60
2018-12-15T20:16:53.855Z,0.60
2018-12-15T20:22:04.113Z,0.70
2018-12-15T20:24:34.405Z,0.70
2018-12-15T20:27:04.974Z,0.70
2018-12-15T20:29:34.971Z,0.70
2018-12-15T20:32:05.102Z,0.60
2018-12-15T20:34:35.302Z,0.60
2018-12-15T20:37:05.714Z,0.60
2018-12-15T20:39:35.517Z,0.70
2018-12-15T20:42:05.676Z,0.70
2018-12-15T20:44:41.676Z,0.70
2018-12-15T20:47:09.527Z,0.70
2018-12-15T20:49:39.470Z,0.70
2018-12-15T20:52:09.662Z,0.70
2018-12-15T20:54:41.244Z,0.80
2018-12-15T20:57:12.093Z,0.80
2018-12-15T20:59:42.382Z,0.70
2018-12-15T21:02:12.094Z,0.80
2018-12-15T21:04:41.805Z,0.80
2018-12-15T21:07:11.706Z,0.80
2018-12-15T21:09:42.472Z,0.70
2018-12-15T21:12:12.261Z,0.70
2018-12-15T21:14:41.825Z,0.70
2018-12-15T21:17:11.515Z,0.70
2018-12-15T21:19:47.685Z,0.70
2018-12-15T21:22:13.259Z,0.70
2018-12-15T21:24:43.346Z,0.60
2018-12-15T21:27:13.014Z,0.60
2018-12-15T21:29:42.609Z,0.60
2018-12-15T21:32:12.563Z,0.50
2018-12-15T21:34:42.350Z,0.40
2018-12-15T21:37:12.057Z,0.40
2018-12-15T21:39:43.512Z,0.40
2018-12-15T21:42:14.428Z,0.40
2018-12-15T21:44:44.302Z,0.30
2018-12-15T21:47:14.215Z,0.30
2018-12-15T21:49:44.151Z,0.30
2018-12-15T21:52:14.179Z,0.40
2018-12-15T21:54:44.575Z,0.40
2018-12-15T21:57:14.270Z,0.40
2018-12-15T21:59:46.911Z,0.40
2018-12-15T22:02:16.672Z,0.50
2018-12-15T22:04:46.546Z,0.50
2018-12-15T22:07:18.074Z,0.50
2018-12-15T22:09:47.744Z,0.50
2018-12-15T22:12:17.513Z,0.50
2018-12-15T22:14:47.087Z,0.50
2018-12-15T22:17:16.793Z,0.40
2018-12-15T22:19:46.603Z,0.40
2018-12-15T22:22:17.106Z,0.40
2018-12-15T22:24:47.407Z,0.40
2018-12-15T22:27:17.319Z,0.40
2018-12-15T22:29:47.068Z,0.50
2018-12-15T22:32:16.896Z,0.40
2018-12-15T22:34:46.692Z,0.40
2018-12-15T22:37:16.722Z,0.40
2018-12-15T22:39:46.616Z,0.40
2018-12-15T22:42:16.545Z,0.40
2018-12-15T22:44:46.423Z,0.50
2018-12-15T22:47:16.288Z,0.50
2018-12-15T22:49:46.438Z,0.40
2018-12-15T22:52:39.220Z,0.40
2018-12-15T22:55:09.706Z,0.40
2018-12-15T22:57:41.387Z,0.40
2018-12-15T23:00:13.324Z,0.40
2018-12-15T23:02:44.689Z,0.40
2018-12-15T23:05:14.774Z,0.40
2018-12-15T23:07:44.597Z,0.40
2018-12-15T23:10:14.464Z,0.40
2018-12-15T23:12:44.952Z,0.30
2018-12-15T23:15:14.879Z,0.30
2018-12-15T23:17:45.382Z,0.30
2018-12-15T23:20:17.104Z,0.40
2018-12-15T23:22:47.378Z,0.30
2018-12-15T23:25:17.311Z,0.30
2018-12-15T23:27:48.069Z,0.30
2018-12-15T23:30:17.940Z,0.40
2018-12-15T23:32:51.161Z,0.30
2018-12-15T23:35:25.219Z,0.30
2018-12-15T23:37:54.970Z,0.30
2018-12-15T23:40:25.161Z,0.30
2018-12-15T23:42:55.050Z,0.40
2018-12-15T23:45:25.261Z,0.30
2018-12-15T23:47:55.016Z,0.20
2018-12-15T23:50:25.203Z,0.30
2018-12-15T23:52:55.921Z,0.30
2018-12-15T23:55:26.190Z,0.30
2018-12-15T23:57:56.217Z,0.20
